createdAt,value
2022-09-21T00:10:37.781Z,62.45
2022-09-21T00:22:38.157Z,67.21
2022-09-21T00:34:38.637Z,67.52
2022-09-21T00:46:39.123Z,70.16
2022-09-21T00:58:39.576Z,67.12
2022-09-21T01:10:40.019Z,69.13
2022-09-21T01:22:40.449Z,71.43
2022-09-21T01:34:40.891Z,65.15
2022-09-21T01:46:41.334Z,62.91
2022-09-21T01:58:41.818Z,67.86
2022-09-21T02:10:42.291Z,72.85
2022-09-21T02:22:42.741Z,69.19
2022-09-21T02:34:43.196Z,65.64
2022-09-21T02:46:43.780Z,67.50
2022-09-21T02:58:44.080Z,65.94
2022-09-21T03:10:44.552Z,70.86
2022-09-21T03:22:45.038Z,67.62
2022-09-21T03:34:45.430Z,67.17
2022-09-21T03:46:45.882Z,64.51
2022-09-21T03:58:46.346Z,71.58
2022-09-21T04:10:46.814Z,67.72
2022-09-21T04:22:47.251Z,65.55
2022-09-21T04:34:47.726Z,65.06
2022-09-21T04:46:48.178Z,72.52
2022-09-21T04:58:48.624Z,65.97
2022-09-21T05:10:49.060Z,65.95
2022-09-21T05:22:49.512Z,69.45
2022-09-21T05:34:49.948Z,68.80
2022-09-21T05:46:55.334Z,69.11
2022-09-21T05:58:50.836Z,65.29
2022-09-21T06:10:51.320Z,63.30
2022-09-21T06:22:51.754Z,69.04
2022-09-21T06:34:52.234Z,73.86
2022-09-21T06:46:52.678Z,73.16
2022-09-21T06:58:53.133Z,61.69
2022-09-21T07:10:53.582Z,55.44
2022-09-21T07:22:54.064Z,52.25
2022-09-21T07:34:54.490Z,50.96
2022-09-21T07:46:54.953Z,50.30
2022-09-21T07:58:55.426Z,49.45
2022-09-21T08:10:55.867Z,47.90
2022-09-21T08:22:56.324Z,47.88
2022-09-21T08:34:57.207Z,47.45
2022-09-21T08:46:57.196Z,46.17
2022-09-21T08:58:57.675Z,44.88
2022-09-21T09:10:58.108Z,44.87
2022-09-21T09:22:58.578Z,39.47
2022-09-21T09:34:58.980Z,41.26
2022-09-21T09:46:59.567Z,41.41
2022-09-21T09:58:59.887Z,39.30
2022-09-21T10:11:00.373Z,40.42
2022-09-21T10:23:00.839Z,38.23
2022-09-21T10:35:01.320Z,39.43
2022-09-21T10:47:01.828Z,37.52
2022-09-21T10:59:02.194Z,40.44
2022-09-21T11:11:02.659Z,38.82
2022-09-21T11:23:03.132Z,37.20
2022-09-21T11:35:03.585Z,40.54
2022-09-21T11:47:04.028Z,40.37
2022-09-21T11:59:04.463Z,40.67
2022-09-21T12:11:04.906Z,38.60
2022-09-21T12:23:05.356Z,39.96
2022-09-21T12:35:05.830Z,36.96
2022-09-21T12:47:06.273Z,37.37
2022-09-21T12:59:06.941Z,37.06
2022-09-21T13:11:07.206Z,37.67
2022-09-21T13:23:07.669Z,41.73
2022-09-21T13:35:08.098Z,41.49
2022-09-21T13:47:08.569Z,40.69
2022-09-21T13:59:09.034Z,39.05
2022-09-21T14:11:09.498Z,37.98
2022-09-21T14:23:09.895Z,38.49
2022-09-21T14:35:18.008Z,39.05
2022-09-21T14:47:10.884Z,40.21
2022-09-21T14:59:11.326Z,40.06
2022-09-21T15:11:11.770Z,42.15
2022-09-21T15:23:12.222Z,41.99
2022-09-21T15:35:12.659Z,42.34
2022-09-21T15:47:13.123Z,42.59
2022-09-21T15:59:13.554Z,39.76
2022-09-21T16:11:14.170Z,42.56
2022-09-21T16:23:14.500Z,45.98
2022-09-21T16:35:14.933Z,46.71
2022-09-21T16:47:15.388Z,46.48
2022-09-21T16:59:15.830Z,49.31
2022-09-21T17:11:16.276Z,50.36
2022-09-21T17:23:16.761Z,51.36
2022-09-21T17:35:17.219Z,51.40
2022-09-21T17:47:17.672Z,52.75
2022-09-21T17:59:18.120Z,54.41
2022-09-21T18:11:18.583Z,54.46
2022-09-21T18:23:19.003Z,57.58
2022-09-21T18:35:19.467Z,56.83
2022-09-21T18:47:19.937Z,58.96
2022-09-21T18:59:20.380Z,60.99
2022-09-21T19:11:20.844Z,59.31
2022-09-21T19:23:21.269Z,59.87
2022-09-21T19:35:21.722Z,61.32
2022-09-21T19:47:22.178Z,61.40
2022-09-21T19:59:22.651Z,61.80
2022-09-21T20:11:23.128Z,65.38
2022-09-21T20:23:23.546Z,64.09
2022-09-21T20:35:23.981Z,60.54
2022-09-21T20:47:24.471Z,61.99
2022-09-21T20:59:24.932Z,63.03
2022-09-21T21:11:25.393Z,63.13
2022-09-21T21:23:25.795Z,62.77
2022-09-21T21:35:26.282Z,61.81
2022-09-21T21:47:39.380Z,61.61
2022-09-21T21:59:27.176Z,62.36
2022-09-21T22:11:27.620Z,64.16
2022-09-21T22:23:28.084Z,63.58
2022-09-21T22:35:28.558Z,62.85
2022-09-21T22:47:28.947Z,62.11
2022-09-21T22:59:29.444Z,62.73
2022-09-21T23:11:29.890Z,62.58
2022-09-21T23:23:30.366Z,64.17
2022-09-21T23:35:30.808Z,61.72
2022-09-21T23:47:31.227Z,61.73
2022-09-21T23:59:31.700Z,63.24
